Friday, October 19, 2018, 11:10 AM GMT
Back to Local

CYMX, Montreal / Mirabel

Location: , , Canada Lat: 45.683
Local Time: 11:10 AM GMT (11:10 GMT) Lon: -74.033
Time Zone: GMT Elev: 269 ft

Show me the last for .
Show Coded

Time T Td Feel RH Dir Speed Gust Alt SLP Vis Weather Sky Remarks
2018-10-19 10:00 36 30 30 80 210° 7 - 30.03 30.05 25 SCT062 BKN220 None
2018-10-19 09:00 36 30 30 80 210° 7 - 30.04 30.06 25 SCT063 BKN200 None
2018-10-19 08:00 37 30 32 74 210° 7 - 30.06 30.07 25 OVC064 None
2018-10-19 07:00 37 28 33 69 200° 6 - 30.08 30.10 25 OVC063 None
2018-10-19 06:00 37 28 34 69 210° 5 - 30.11 30.12 25 OVC064 None
2018-10-19 05:00 37 27 33 64 220° 6 - 30.13 30.14 25 SCT050 OVC068 None
2018-10-19 04:00 37 23 31 55 230° 8 - 30.15 30.16 25 BKN041 OVC075 None
2018-10-19 03:00 36 21 32 55 210° 5 - 30.17 30.18 25 OVC075 None
2018-10-19 02:00 36 21 33 55 230° 3 - 30.18 30.19 25 OVC083 None
2018-10-19 01:00 36 19 33 51 240° 3 - 30.19 30.20 25 OVC075 None
2018-10-19 00:00 36 18 31 47 250° 6 - 30.20 30.21 25 FEW080 BKN100 None
2018-10-18 23:00 36 18 29 47 240° 9 - 30.21 30.23 25 FEW110 FEW260 None
2018-10-18 22:00 36 16 25 43 240° 10 20 30.20 30.22 45 FEW060 FEW160 FEW260 None
2018-10-18 21:00 39 18 29 41 250° 13 21 30.19 30.21 45 FEW060 None
2018-10-18 20:00 39 18 29 41 250° 13 23 30.21 30.23 45 BKN055 None
2018-10-18 19:00 37 18 26 44 250° 14 24 30.22 30.24 45 BKN053 None
2018-10-18 18:00 39 19 29 44 260° 9 23 30.23 30.25 45 VCSH BKN055 None
2018-10-18 17:00 37 19 27 47 270° 8 22 30.25 30.27 45 SCT048 None
2018-10-18 16:00 36 19 25 51 270° 10 17 30.26 30.28 45 SCT041 None
2018-10-18 15:00 36 19 25 51 290° 13 21 30.26 30.27 45 FEW038 None
2018-10-18 14:00 34 19 22 55 310° 12 23 30.25 30.27 45 FEW038 None
2018-10-18 13:00 32 19 19 59 280° 8 22 30.25 30.26 45 FEW035 None
2018-10-18 12:00 30 18 18 58 320° 10 17 30.22 30.24 45 FEW038 None

Support USWX by starting your Amazon purchase here.